Stinson Municipal Airport
KSSF : now visible

Airfield :











YOU CAN JOIN US ON...

 
LOGIN :

Register | Disclaimer

   EN    FR    IT 

 









Legend :    VFR   Marginal VFR   IFR   Intensive IFR   Very Intensive IFR
Visi :
Ceiling :
>= 8 km
>= 3000ft
5 to 8 km
1000 to 3000 ft
1500m to 5 km
500 to 1000 ft
800 to 1500m
200 to 500 ft
< 800m
< 200 ft
Symbols :   Thunderstorms  Fog  Heavy snow  Heavy precipitations  Wind > 20 kt






- Airport Elevation : 577 ft


KSSF - Stinson Municipal

CURRENT METAR :
  • 222253Z 05006KT 10SM CLR 33/24 A2989 RMK AO2 SLP109 T03280239

EXPIRED METARs :
  • 222153Z 11006KT 10SM FEW034 33/24 A2991 RMK AO2 SLP115 T03280244
  • 222053Z 11008KT 10SM FEW031 32/24 A2992 RMK AO2 SLP118 T03220239 58011

TAF KSSF
Valid from the 22 at 18:00 until the 23 at 18:00 UTC


221724Z 2218/2318 07008KT P6SM SCT040 BKN150
FM230100 09006KT P6SM BKN035
FM230900 11004KT P6SM BKN015
FM231500 14008KT P6SM BKN025
FM231700 15010KT P6SM SCT040
KZHU FIR / North America



MET'MAP, your aeronautical weather chart ! - Copyright ORBIFLY December 2007 - Disclaimer

ORBIFLY MET'MAP TEAM :

Programming & Development : Alexandra Zaïnal
Concept & original design : Baudouin d'Aumeries
Assistance for programming : Marc-Olivier Méhu
Technical & hardware support : Manuel Goepfert

Contact : metmap@orbifly.com




SOURCES & CREDITS :

   NOAA       Earth
Advisory